createdAt,value
2018-07-02T00:02:26.161Z,61.60
2018-07-02T00:04:54.527Z,62.30
2018-07-02T00:07:23.997Z,61.80
2018-07-02T00:09:52.909Z,63.60
2018-07-02T00:12:22.098Z,61.80
2018-07-02T00:14:51.400Z,61.90
2018-07-02T00:17:19.800Z,61.50
2018-07-02T00:19:48.158Z,63.50
2018-07-02T00:22:16.745Z,63.80
2018-07-02T00:24:45.095Z,62.50
2018-07-02T00:27:13.431Z,62.00
2018-07-02T00:29:41.776Z,62.00
2018-07-02T00:32:10.094Z,62.70
2018-07-02T00:34:38.416Z,61.40
2018-07-02T00:37:06.750Z,62.70
2018-07-02T00:39:35.101Z,63.50
2018-07-02T00:42:03.473Z,62.80
2018-07-02T00:49:28.069Z,63.40
2018-07-02T00:51:56.372Z,63.00
2018-07-02T00:54:24.739Z,64.10
2018-07-02T00:56:53.058Z,63.60
2018-07-02T00:59:21.556Z,64.90
2018-07-02T01:01:49.892Z,64.20
2018-07-02T01:04:18.240Z,64.70
2018-07-02T01:06:46.601Z,65.80
2018-07-02T01:09:14.977Z,64.50
2018-07-02T01:11:43.344Z,65.40
2018-07-02T01:14:11.720Z,65.30
2018-07-02T01:16:40.097Z,65.40
2018-07-02T01:19:08.448Z,66.00
2018-07-02T01:21:36.853Z,65.30
2018-07-02T01:24:05.181Z,66.10
2018-07-02T01:26:33.512Z,66.70
2018-07-02T01:29:01.861Z,67.30
2018-07-02T01:31:30.224Z,67.40
2018-07-02T01:33:58.568Z,67.10
2018-07-02T01:36:26.885Z,67.40
2018-07-02T01:38:55.199Z,67.20
2018-07-02T01:41:23.565Z,69.00
2018-07-02T01:43:51.981Z,68.40
2018-07-02T01:46:20.336Z,68.70
2018-07-02T01:48:48.644Z,68.40
2018-07-02T01:51:16.984Z,69.20
2018-07-02T01:53:45.337Z,69.70
2018-07-02T01:56:13.673Z,70.50
2018-07-02T01:58:42.015Z,69.10
2018-07-02T02:01:10.377Z,69.00
2018-07-02T02:03:38.695Z,69.30
2018-07-02T02:06:07.028Z,70.90
2018-07-02T02:08:35.348Z,70.60
2018-07-02T02:11:03.736Z,69.60
2018-07-02T02:13:32.040Z,69.70
2018-07-02T02:16:00.425Z,72.10
2018-07-02T02:18:28.732Z,71.40
2018-07-02T02:20:57.069Z,72.30
2018-07-02T02:23:25.424Z,71.50
2018-07-02T02:25:53.797Z,71.80
2018-07-02T02:28:22.112Z,72.90
2018-07-02T02:30:50.456Z,73.20
2018-07-02T02:33:18.756Z,72.10
2018-07-02T02:35:47.094Z,74.00
2018-07-02T02:38:15.439Z,73.90
2018-07-02T02:40:43.768Z,74.50
2018-07-02T02:43:12.072Z,72.50
2018-07-02T02:45:40.412Z,73.60
2018-07-02T02:48:08.788Z,73.80
2018-07-02T02:50:37.120Z,74.20
2018-07-02T02:53:05.492Z,73.20
2018-07-02T02:55:33.852Z,73.90
2018-07-02T02:58:02.183Z,74.00
2018-07-02T03:00:30.563Z,75.10
2018-07-02T03:02:58.885Z,74.20
2018-07-02T03:05:27.222Z,74.10
2018-07-02T03:07:55.552Z,75.10
2018-07-02T03:10:23.866Z,73.80
2018-07-02T03:12:52.221Z,75.60
2018-07-02T03:15:20.550Z,75.50
2018-07-02T03:17:48.897Z,75.10
2018-07-02T03:20:17.240Z,75.00
2018-07-02T03:22:45.592Z,75.00
2018-07-02T03:25:13.944Z,75.40
2018-07-02T03:27:42.297Z,75.50
2018-07-02T03:30:10.608Z,76.00
2018-07-02T03:32:38.956Z,74.00
2018-07-02T03:35:07.285Z,75.50
2018-07-02T03:37:35.640Z,77.10
2018-07-02T03:40:04.018Z,77.70
2018-07-02T03:42:32.360Z,76.80
2018-07-02T03:45:00.658Z,77.00
2018-07-02T03:47:29.020Z,78.10
2018-07-02T03:49:57.323Z,77.70
2018-07-02T03:52:25.672Z,78.10
2018-07-02T03:54:53.990Z,77.90
2018-07-02T03:57:22.312Z,77.70
2018-07-02T03:59:50.644Z,77.30
2018-07-02T04:02:18.978Z,77.80
2018-07-02T04:04:47.309Z,78.20
2018-07-02T04:07:15.744Z,80.50
2018-07-02T04:09:44.060Z,78.10
2018-07-02T04:12:12.387Z,77.50
2018-07-02T04:14:40.744Z,77.90
2018-07-02T04:17:09.048Z,80.50
2018-07-02T04:19:37.403Z,80.30
2018-07-02T04:22:05.733Z,84.60
2018-07-02T04:24:34.072Z,83.80
2018-07-02T04:27:02.392Z,84.20
2018-07-02T04:29:30.765Z,85.70
2018-07-02T04:31:59.088Z,85.60
2018-07-02T04:34:28.396Z,85.30
2018-07-02T04:36:56.771Z,86.30
2018-07-02T04:39:25.097Z,83.50
2018-07-02T04:41:53.433Z,83.10
2018-07-02T04:44:21.893Z,82.90
2018-07-02T04:46:50.317Z,84.20
2018-07-02T04:49:18.625Z,84.60
2018-07-02T04:51:46.985Z,84.30
2018-07-02T04:54:15.295Z,82.10
2018-07-02T04:56:43.637Z,80.40
2018-07-02T04:59:11.997Z,80.20
2018-07-02T05:01:40.320Z,79.30
2018-07-02T05:04:08.640Z,80.80
2018-07-02T05:06:36.929Z,80.10
2018-07-02T05:09:07.102Z,81.00
2018-07-02T05:11:35.457Z,82.10
2018-07-02T05:14:03.791Z,82.60
2018-07-02T05:16:32.113Z,81.50
2018-07-02T05:19:00.400Z,82.90
2018-07-02T05:21:28.721Z,80.90
2018-07-02T05:23:57.016Z,81.20
2018-07-02T05:26:25.337Z,77.70
2018-07-02T05:28:53.629Z,78.70
2018-07-02T05:31:21.954Z,81.00
2018-07-02T05:33:50.259Z,80.40
2018-07-02T05:36:18.554Z,80.50
2018-07-02T05:41:14.931Z,76.00
2018-07-02T05:43:43.247Z,74.10
2018-07-02T05:46:14.136Z,71.80
2018-07-02T05:48:42.493Z,73.00
2018-07-02T05:51:10.921Z,72.60
2018-07-02T05:53:39.217Z,74.90
2018-07-02T05:56:07.572Z,73.00
2018-07-02T05:58:35.861Z,73.20
2018-07-02T06:01:04.217Z,72.50
2018-07-02T06:03:32.512Z,69.60
2018-07-02T06:06:00.868Z,69.70
2018-07-02T06:08:29.169Z,66.90
2018-07-02T06:10:57.518Z,69.30
2018-07-02T06:13:25.910Z,68.50
2018-07-02T06:15:54.243Z,65.80
2018-07-02T06:18:22.570Z,66.20
2018-07-02T06:20:50.901Z,66.40
2018-07-02T06:23:19.219Z,65.90
2018-07-02T06:25:47.527Z,67.70
2018-07-02T06:28:15.905Z,66.30
2018-07-02T06:30:44.209Z,64.70
2018-07-02T06:33:12.557Z,64.90
2018-07-02T06:35:40.852Z,64.00
2018-07-02T06:38:09.184Z,63.80
2018-07-02T06:40:37.500Z,66.70
2018-07-02T06:43:05.930Z,67.90
2018-07-02T06:45:34.229Z,68.80
2018-07-02T06:48:02.576Z,69.30
2018-07-02T06:50:30.887Z,68.80
2018-07-02T06:52:59.220Z,68.40
2018-07-02T06:55:27.536Z,69.50
2018-07-02T06:57:55.881Z,69.50
2018-07-02T07:00:24.192Z,71.50
2018-07-02T07:02:52.546Z,70.30
2018-07-02T07:05:20.853Z,71.00
2018-07-02T07:07:49.173Z,69.70
2018-07-02T07:10:17.498Z,68.70
2018-07-02T07:12:45.809Z,71.10
2018-07-02T07:15:14.718Z,68.50
2018-07-02T07:17:43.998Z,71.50
2018-07-02T07:20:12.791Z,71.50
2018-07-02T07:22:42.630Z,69.90
2018-07-02T07:25:12.182Z,70.40
2018-07-02T07:27:40.936Z,68.60
2018-07-02T07:30:09.713Z,68.30
2018-07-02T07:32:38.773Z,69.50
2018-07-02T07:35:08.700Z,68.20
2018-07-02T07:37:38.717Z,66.80
2018-07-02T07:40:09.388Z,69.30
2018-07-02T07:42:38.870Z,68.40
2018-07-02T07:45:08.327Z,67.80
2018-07-02T07:47:37.128Z,66.60
2018-07-02T07:50:05.887Z,64.30
2018-07-02T07:52:34.851Z,65.50
2018-07-02T07:55:03.460Z,65.00
2018-07-02T07:57:33.279Z,64.80
2018-07-02T08:00:02.585Z,62.50
2018-07-02T08:02:31.571Z,62.80
2018-07-02T08:05:00.801Z,63.50
2018-07-02T08:09:58.449Z,63.60
2018-07-02T08:12:27.831Z,64.30
2018-07-02T08:14:56.523Z,64.50
2018-07-02T08:17:25.388Z,66.40
2018-07-02T08:19:54.664Z,63.20
2018-07-02T08:22:27.217Z,63.20
2018-07-02T08:24:56.496Z,61.40
2018-07-02T08:27:25.299Z,61.60
2018-07-02T08:29:54.112Z,60.90
2018-07-02T08:32:22.893Z,59.20
2018-07-02T08:34:52.313Z,59.40
2018-07-02T08:37:21.040Z,59.00
2018-07-02T08:39:49.727Z,60.90
2018-07-02T08:42:19.047Z,58.80
2018-07-02T08:44:48.836Z,56.00
2018-07-02T08:47:17.496Z,55.20
2018-07-02T08:49:46.931Z,56.20
2018-07-02T08:52:15.792Z,53.50
2018-07-02T08:54:44.871Z,53.60
2018-07-02T08:57:14.009Z,54.00
2018-07-02T08:59:42.939Z,53.80
2018-07-02T09:02:11.756Z,52.70
2018-07-02T09:04:42.269Z,54.30
2018-07-02T09:07:12.533Z,55.30
2018-07-02T09:09:42.923Z,56.10
2018-07-02T09:12:12.737Z,56.30
2018-07-02T09:14:41.137Z,54.00
2018-07-02T09:17:09.965Z,54.50
2018-07-02T09:19:39.029Z,56.00
2018-07-02T09:22:08.032Z,54.80
2018-07-02T09:24:36.493Z,55.60
2018-07-02T09:27:07.679Z,58.60
2018-07-02T09:29:37.650Z,57.10
2018-07-02T09:32:06.973Z,55.60
2018-07-02T09:34:35.321Z,56.70
2018-07-02T09:37:04.188Z,56.40
2018-07-02T09:39:34.144Z,58.80
2018-07-02T09:42:03.473Z,56.70
2018-07-02T09:44:31.801Z,57.40
2018-07-02T09:49:29.178Z,57.20
2018-07-02T09:51:58.412Z,55.60
2018-07-02T09:54:27.170Z,54.10
2018-07-02T09:56:55.969Z,55.20
2018-07-02T09:59:24.652Z,55.90
2018-07-02T10:01:53.291Z,51.80
2018-07-02T10:04:22.077Z,52.10
2018-07-02T10:06:50.839Z,52.90
2018-07-02T10:09:21.663Z,51.30
2018-07-02T10:11:50.389Z,50.80
2018-07-02T10:14:18.702Z,53.50
2018-07-02T10:16:48.397Z,52.30
2018-07-02T10:19:17.475Z,52.80
2018-07-02T10:21:46.351Z,49.50
2018-07-02T10:24:14.669Z,51.30
2018-07-02T10:26:43.537Z,48.90
2018-07-02T10:29:13.351Z,48.30
2018-07-02T10:31:43.251Z,48.30
2018-07-02T10:34:12.559Z,47.40
2018-07-02T10:36:41.328Z,46.70
2018-07-02T10:39:09.939Z,45.40
2018-07-02T10:41:39.344Z,48.20
2018-07-02T10:44:08.121Z,48.30
2018-07-02T10:46:37.001Z,48.70
2018-07-02T10:49:05.828Z,43.00
2018-07-02T10:51:35.913Z,45.00
2018-07-02T10:54:04.421Z,44.20
2018-07-02T10:56:33.393Z,45.50
2018-07-02T10:59:02.279Z,44.40
2018-07-02T11:01:31.677Z,45.30
2018-07-02T11:04:00.018Z,46.20
2018-07-02T11:08:57.765Z,45.00
2018-07-02T11:11:27.902Z,40.90
2018-07-02T11:13:56.221Z,43.20
2018-07-02T11:16:25.053Z,43.10
2018-07-02T11:18:54.744Z,41.30
2018-07-02T11:21:23.708Z,40.30
2018-07-02T11:23:52.053Z,41.20
2018-07-02T11:26:20.892Z,41.60
2018-07-02T11:28:49.898Z,40.90
2018-07-02T11:31:18.646Z,40.70
2018-07-02T11:33:46.947Z,44.20
2018-07-02T11:38:44.888Z,43.20
2018-07-02T11:41:14.343Z,42.50
2018-07-02T11:43:42.955Z,42.40
2018-07-02T11:46:13.847Z,41.10
2018-07-02T11:48:42.805Z,41.20
2018-07-02T11:51:12.745Z,40.50
2018-07-02T11:53:42.107Z,41.20
2018-07-02T11:56:11.059Z,41.90
2018-07-02T11:58:39.966Z,39.20
2018-07-02T12:01:08.855Z,37.70
2018-07-02T12:06:06.224Z,41.00
2018-07-02T12:08:35.495Z,41.40
2018-07-02T12:11:05.228Z,40.60
2018-07-02T12:13:33.710Z,40.40
2018-07-02T12:16:02.575Z,38.60
2018-07-02T12:18:31.336Z,40.10
2018-07-02T12:21:00.180Z,39.70
2018-07-02T12:23:29.755Z,38.40
2018-07-02T12:25:58.401Z,38.20
2018-07-02T12:28:27.227Z,39.30
2018-07-02T12:30:55.836Z,40.20
2018-07-02T12:33:24.911Z,39.70
2018-07-02T12:35:53.586Z,39.60
2018-07-02T12:38:22.773Z,37.60
2018-07-02T12:40:56.460Z,37.70
2018-07-02T12:43:26.030Z,38.00
2018-07-02T12:45:54.902Z,39.60
2018-07-02T12:48:24.327Z,37.50
2018-07-02T12:50:53.335Z,39.20
2018-07-02T12:53:22.883Z,39.70
2018-07-02T12:55:51.581Z,41.00
2018-07-02T12:58:21.014Z,41.00
2018-07-02T13:00:49.706Z,41.90
2018-07-02T13:08:16.369Z,40.00
2018-07-02T13:10:45.795Z,38.60
2018-07-02T13:13:14.864Z,38.30
2018-07-02T13:15:43.720Z,41.00
2018-07-02T13:18:12.644Z,41.70
2018-07-02T13:20:42.270Z,42.40
2018-07-02T13:23:10.986Z,42.80
2018-07-02T13:25:40.195Z,43.40
2018-07-02T13:28:10.736Z,43.40
2018-07-02T13:30:39.765Z,42.20
2018-07-02T13:33:08.650Z,43.40
2018-07-02T13:35:39.400Z,43.90
2018-07-02T13:38:08.854Z,42.20
2018-07-02T13:40:37.922Z,43.70
2018-07-02T13:43:06.756Z,42.50
2018-07-02T13:45:35.069Z,44.50
2018-07-02T13:48:03.393Z,43.80
2018-07-02T13:50:31.721Z,45.00
2018-07-02T13:53:00.230Z,43.10
2018-07-02T13:55:28.629Z,44.90
2018-07-02T13:57:56.957Z,43.00
2018-07-02T14:00:25.310Z,44.60
2018-07-02T14:02:53.677Z,43.40
2018-07-02T14:05:21.940Z,42.20
2018-07-02T14:07:50.245Z,45.40
2018-07-02T14:10:18.620Z,46.70
2018-07-02T14:12:46.935Z,44.30
2018-07-02T14:15:15.276Z,45.40
2018-07-02T14:17:43.609Z,44.40
2018-07-02T14:20:11.925Z,45.00
2018-07-02T14:22:40.223Z,43.00
2018-07-02T14:25:08.535Z,47.60
2018-07-02T14:27:36.837Z,48.10
2018-07-02T14:30:06.825Z,44.80
2018-07-02T14:32:35.120Z,44.50
2018-07-02T14:35:03.465Z,44.20
2018-07-02T14:37:31.797Z,44.70
2018-07-02T14:40:00.114Z,43.90
2018-07-02T14:42:28.417Z,44.90
2018-07-02T14:44:56.906Z,43.80
2018-07-02T14:47:25.034Z,46.10
2018-07-02T14:49:53.355Z,46.80
2018-07-02T14:52:21.649Z,46.10
2018-07-02T14:54:49.972Z,45.70
2018-07-02T14:57:18.271Z,46.70
2018-07-02T14:59:46.580Z,45.10
2018-07-02T15:02:14.893Z,48.30
2018-07-02T15:04:43.225Z,46.20
2018-07-02T15:07:11.517Z,45.00
2018-07-02T15:12:07.865Z,45.50
2018-07-02T15:14:36.266Z,43.60
2018-07-02T15:17:04.620Z,46.90
2018-07-02T15:19:33.016Z,43.00
2018-07-02T15:22:01.381Z,43.20
2018-07-02T15:24:29.709Z,47.20
2018-07-02T15:26:58.014Z,47.00
2018-07-02T15:29:26.324Z,47.30
2018-07-02T15:31:54.660Z,48.20
2018-07-02T15:34:22.976Z,48.00
2018-07-02T15:36:51.305Z,45.00
2018-07-02T15:39:19.655Z,46.80
2018-07-02T15:41:48.057Z,43.50
2018-07-02T15:44:16.270Z,44.30
2018-07-02T15:46:44.607Z,45.70
2018-07-02T15:49:12.887Z,49.10
2018-07-02T15:51:41.182Z,47.10
2018-07-02T15:54:09.512Z,47.90
2018-07-02T15:56:37.835Z,47.30
2018-07-02T15:59:06.176Z,46.70
2018-07-02T16:01:34.497Z,46.80
2018-07-02T16:04:02.819Z,46.40
2018-07-02T16:06:31.120Z,48.40
2018-07-02T16:08:59.437Z,45.80
2018-07-02T16:11:27.741Z,44.20
2018-07-02T16:13:56.108Z,46.30
2018-07-02T16:16:24.412Z,47.90
2018-07-02T16:18:52.744Z,45.10
2018-07-02T16:21:21.121Z,46.50
2018-07-02T16:23:49.492Z,46.80
2018-07-02T16:26:17.801Z,44.90
2018-07-02T16:28:46.105Z,46.10
2018-07-02T16:31:14.409Z,46.30
2018-07-02T16:33:42.695Z,47.30
2018-07-02T16:36:11.002Z,45.70
2018-07-02T16:38:39.308Z,46.30
2018-07-02T16:41:07.640Z,46.30
2018-07-02T16:43:35.945Z,46.50
2018-07-02T16:46:04.392Z,48.30
2018-07-02T16:48:32.701Z,45.30
2018-07-02T16:51:01.098Z,44.10
2018-07-02T16:53:29.390Z,47.90
2018-07-02T16:55:57.745Z,45.40
2018-07-02T16:58:26.052Z,46.80
2018-07-02T17:00:54.385Z,47.90
2018-07-02T17:03:22.710Z,48.00
2018-07-02T17:05:51.012Z,47.00
2018-07-02T17:08:19.329Z,45.80
2018-07-02T17:10:47.778Z,49.00
2018-07-02T17:13:16.131Z,47.70
2018-07-02T17:15:44.446Z,48.70
2018-07-02T17:18:12.785Z,48.10
2018-07-02T17:20:41.109Z,47.00
2018-07-02T17:23:09.441Z,46.50
2018-07-02T17:25:37.796Z,48.80
2018-07-02T17:28:06.436Z,47.70
2018-07-02T17:30:35.594Z,49.70
2018-07-02T17:33:03.929Z,47.50
2018-07-02T17:35:32.337Z,45.90
2018-07-02T17:38:00.729Z,47.10
2018-07-02T17:40:29.097Z,48.60
2018-07-02T17:42:57.456Z,48.60
2018-07-02T17:45:25.837Z,47.80
2018-07-02T17:47:54.132Z,49.00
2018-07-02T17:50:22.808Z,47.50
2018-07-02T17:52:51.112Z,50.30
2018-07-02T17:55:19.461Z,50.50
2018-07-02T17:57:47.756Z,50.20
2018-07-02T18:00:16.106Z,48.20
2018-07-02T18:02:44.507Z,47.40
2018-07-02T18:05:12.894Z,48.60
2018-07-02T18:07:41.194Z,48.60
2018-07-02T18:10:09.529Z,49.80
2018-07-02T18:12:37.840Z,48.40
2018-07-02T18:17:35.501Z,49.50
2018-07-02T18:20:03.956Z,50.20
2018-07-02T18:22:32.315Z,49.80
2018-07-02T18:25:00.708Z,49.00
2018-07-02T18:27:29.043Z,49.10
2018-07-02T18:29:57.369Z,51.30
2018-07-02T18:32:25.813Z,51.30
2018-07-02T18:34:54.325Z,52.70
2018-07-02T18:37:31.482Z,51.20
2018-07-02T18:40:21.378Z,53.30
2018-07-02T18:43:17.870Z,53.90
2018-07-02T18:45:46.144Z,55.20
2018-07-02T18:48:14.432Z,51.80
2018-07-02T18:50:43.110Z,53.00
2018-07-02T18:53:11.844Z,55.20
2018-07-02T18:55:40.250Z,56.30
2018-07-02T18:58:09.042Z,56.60
2018-07-02T19:00:37.452Z,56.40
2018-07-02T19:03:05.785Z,57.50
2018-07-02T19:05:34.145Z,57.40
2018-07-02T19:08:02.473Z,56.20
2018-07-02T19:10:30.924Z,56.70
2018-07-02T19:12:59.421Z,57.30
2018-07-02T19:15:27.855Z,58.50
2018-07-02T19:17:56.206Z,57.60
2018-07-02T19:20:24.535Z,57.90
2018-07-02T19:22:52.856Z,59.00
2018-07-02T19:25:21.184Z,58.60
2018-07-02T19:27:49.596Z,59.50
2018-07-02T19:30:18.067Z,61.00
2018-07-02T19:32:46.433Z,60.10
2018-07-02T19:35:14.756Z,59.80
2018-07-02T19:37:43.089Z,60.90
2018-07-02T19:40:11.434Z,62.30
2018-07-02T19:42:39.969Z,63.40
2018-07-02T19:45:08.335Z,63.30
2018-07-02T19:47:36.712Z,62.70
2018-07-02T19:50:05.112Z,64.70
2018-07-02T19:52:33.505Z,63.40
2018-07-02T19:55:01.924Z,63.80
2018-07-02T19:57:30.278Z,62.30
2018-07-02T19:59:58.701Z,63.10
2018-07-02T20:02:27.043Z,63.90
2018-07-02T20:04:55.388Z,65.20
2018-07-02T20:07:23.800Z,63.60
2018-07-02T20:09:52.110Z,64.00
2018-07-02T20:12:20.453Z,65.80
2018-07-02T20:14:48.754Z,65.90
2018-07-02T20:17:17.076Z,67.90
2018-07-02T20:22:13.446Z,69.30
2018-07-02T20:24:42.612Z,71.30
2018-07-02T20:27:10.989Z,72.60
2018-07-02T20:29:39.282Z,71.80
2018-07-02T20:32:07.596Z,72.60
2018-07-02T20:34:35.932Z,73.30
2018-07-02T20:37:04.372Z,74.30
2018-07-02T20:39:32.693Z,73.30
2018-07-02T20:42:01.007Z,74.20
2018-07-02T20:44:29.349Z,72.70
2018-07-02T20:46:57.661Z,71.60
2018-07-02T20:49:26.001Z,73.90
2018-07-02T20:51:54.315Z,74.80
2018-07-02T20:54:23.172Z,75.50
2018-07-02T20:56:51.572Z,73.70
2018-07-02T20:59:19.915Z,74.20
2018-07-02T21:01:48.197Z,74.60
2018-07-02T21:04:16.532Z,75.70
2018-07-02T21:06:44.849Z,78.10
2018-07-02T21:09:13.139Z,78.40
2018-07-02T21:11:41.449Z,77.10
2018-07-02T21:14:09.789Z,78.50
2018-07-02T21:16:38.126Z,80.10
2018-07-02T21:19:06.539Z,79.30
2018-07-02T21:21:35.071Z,80.80
2018-07-02T21:24:03.506Z,83.50
2018-07-02T21:26:31.956Z,84.00
2018-07-02T21:29:00.357Z,84.20
2018-07-02T21:31:28.648Z,84.70
2018-07-02T21:33:56.988Z,85.60
2018-07-02T21:36:25.304Z,83.20
2018-07-02T21:38:53.688Z,84.80
2018-07-02T21:41:22.111Z,85.00
2018-07-02T21:43:50.589Z,84.40
2018-07-02T21:46:18.928Z,86.70
2018-07-02T21:48:47.236Z,86.50
2018-07-02T21:51:15.546Z,85.90
2018-07-02T21:53:43.892Z,84.90
2018-07-02T21:56:12.202Z,83.60
2018-07-02T21:58:40.551Z,85.70
2018-07-02T22:01:08.968Z,85.90
2018-07-02T22:03:37.313Z,83.00
2018-07-02T22:06:06.020Z,83.80
2018-07-02T22:08:34.345Z,84.30
2018-07-02T22:11:02.738Z,85.70
2018-07-02T22:13:31.000Z,87.20
2018-07-02T22:15:59.326Z,88.20
2018-07-02T22:18:27.730Z,88.50
2018-07-02T22:20:56.033Z,87.30
2018-07-02T22:23:24.389Z,89.00
2018-07-02T22:25:52.700Z,86.60
2018-07-02T22:28:21.037Z,86.80
2018-07-02T22:30:49.336Z,86.20
2018-07-02T22:33:17.668Z,90.10
2018-07-02T22:35:45.974Z,87.90
2018-07-02T22:38:14.292Z,90.30
2018-07-02T22:40:42.596Z,91.50
2018-07-02T22:43:10.931Z,91.30
2018-07-02T22:45:39.228Z,92.10
2018-07-02T22:48:07.585Z,91.80
2018-07-02T22:50:35.877Z,93.40
2018-07-02T22:53:04.221Z,93.60
2018-07-02T22:55:42.524Z,93.10
2018-07-02T22:58:10.869Z,92.70
2018-07-02T23:00:39.193Z,93.90
2018-07-02T23:03:08.376Z,94.30
2018-07-02T23:05:36.681Z,94.90
2018-07-02T23:08:05.103Z,95.00
2018-07-02T23:10:33.624Z,95.30
2018-07-02T23:13:01.978Z,95.80
2018-07-02T23:15:30.297Z,96.60
2018-07-02T23:17:58.617Z,96.80
2018-07-02T23:20:26.950Z,95.90
2018-07-02T23:23:00.796Z,95.90
2018-07-02T23:25:29.649Z,95.10
2018-07-02T23:27:59.251Z,96.80
2018-07-02T23:30:28.273Z,96.80
2018-07-02T23:32:56.665Z,97.60
2018-07-02T23:37:53.369Z,98.40
2018-07-02T23:40:23.092Z,98.20
2018-07-02T23:42:52.482Z,97.20
2018-07-02T23:45:21.432Z,98.00
2018-07-02T23:47:49.788Z,98.00
2018-07-02T23:50:18.362Z,98.40
2018-07-02T23:52:46.652Z,99.60
2018-07-02T23:55:14.984Z,99.90
2018-07-02T23:57:43.281Z,99.90
